sensor_id;sensor_type;location;lat;lon;timestamp;P1;durP1;ratioP1;P2;durP2;ratioP2
35685;SDS011;21808;42.142;24.720;2024-03-25T00:01:26;13.60;;;6.28;;
35685;SDS011;21808;42.142;24.720;2024-03-25T00:03:52;15.55;;;6.75;;
35685;SDS011;21808;42.142;24.720;2024-03-25T00:06:18;16.95;;;6.85;;
35685;SDS011;21808;42.142;24.720;2024-03-25T00:08:44;13.55;;;6.38;;
35685;SDS011;21808;42.142;24.720;2024-03-25T00:11:10;14.60;;;6.47;;
35685;SDS011;21808;42.142;24.720;2024-03-25T00:13:36;14.40;;;5.82;;
35685;SDS011;21808;42.142;24.720;2024-03-25T00:16:04;14.90;;;5.82;;
35685;SDS011;21808;42.142;24.720;2024-03-25T00:18:31;13.68;;;5.53;;
35685;SDS011;21808;42.142;24.720;2024-03-25T00:20:57;13.60;;;6.03;;
35685;SDS011;21808;42.142;24.720;2024-03-25T00:23:23;15.82;;;6.82;;
35685;SDS011;21808;42.142;24.720;2024-03-25T00:25:50;15.43;;;5.80;;
35685;SDS011;21808;42.142;24.720;2024-03-25T00:28:16;13.43;;;6.43;;
35685;SDS011;21808;42.142;24.720;2024-03-25T00:30:42;13.75;;;6.15;;
35685;SDS011;21808;42.142;24.720;2024-03-25T00:33:09;15.25;;;6.22;;
35685;SDS011;21808;42.142;24.720;2024-03-25T00:35:36;23.63;;;6.57;;
35685;SDS011;21808;42.142;24.720;2024-03-25T00:38:02;15.48;;;6.43;;
35685;SDS011;21808;42.142;24.720;2024-03-25T00:40:29;18.52;;;6.63;;
35685;SDS011;21808;42.142;24.720;2024-03-25T00:42:56;17.23;;;6.53;;
35685;SDS011;21808;42.142;24.720;2024-03-25T00:45:22;16.00;;;6.78;;
35685;SDS011;21808;42.142;24.720;2024-03-25T00:47:51;13.82;;;6.40;;
35685;SDS011;21808;42.142;24.720;2024-03-25T00:50:18;14.65;;;6.70;;
35685;SDS011;21808;42.142;24.720;2024-03-25T00:52:44;14.43;;;6.10;;
35685;SDS011;21808;42.142;24.720;2024-03-25T00:55:10;14.88;;;6.45;;
35685;SDS011;21808;42.142;24.720;2024-03-25T00:57:36;15.73;;;6.63;;
35685;SDS011;21808;42.142;24.720;2024-03-25T01:00:02;15.00;;;6.57;;
35685;SDS011;21808;42.142;24.720;2024-03-25T01:02:29;15.50;;;6.45;;
35685;SDS011;21808;42.142;24.720;2024-03-25T01:04:56;16.95;;;6.80;;
35685;SDS011;21808;42.142;24.720;2024-03-25T01:07:24;15.18;;;6.10;;
35685;SDS011;21808;42.142;24.720;2024-03-25T01:09:50;13.90;;;5.85;;
35685;SDS011;21808;42.142;24.720;2024-03-25T01:12:15;14.68;;;6.32;;
35685;SDS011;21808;42.142;24.720;2024-03-25T01:14:41;18.27;;;7.32;;
35685;SDS011;21808;42.142;24.720;2024-03-25T01:17:07;19.02;;;8.88;;
35685;SDS011;21808;42.142;24.720;2024-03-25T01:19:33;19.42;;;9.10;;
35685;SDS011;21808;42.142;24.720;2024-03-25T01:21:59;18.13;;;9.30;;
35685;SDS011;21808;42.142;24.720;2024-03-25T01:24:26;22.13;;;10.35;;
35685;SDS011;21808;42.142;24.720;2024-03-25T01:26:52;20.70;;;9.48;;
35685;SDS011;21808;42.142;24.720;2024-03-25T01:29:18;23.23;;;9.40;;
35685;SDS011;21808;42.142;24.720;2024-03-25T01:31:44;18.20;;;7.70;;
35685;SDS011;21808;42.142;24.720;2024-03-25T01:34:10;16.63;;;5.40;;
35685;SDS011;21808;42.142;24.720;2024-03-25T01:36:36;7.30;;;1.65;;
35685;SDS011;21808;42.142;24.720;2024-03-25T01:39:02;11.60;;;1.30;;
35685;SDS011;21808;42.142;24.720;2024-03-25T01:41:31;1.63;;;0.60;;
35685;SDS011;21808;42.142;24.720;2024-03-25T01:43:57;4.70;;;0.88;;
35685;SDS011;21808;42.142;24.720;2024-03-25T01:46:23;3.45;;;0.40;;
35685;SDS011;21808;42.142;24.720;2024-03-25T01:48:49;5.82;;;0.60;;
35685;SDS011;21808;42.142;24.720;2024-03-25T01:51:17;2.92;;;0.55;;
35685;SDS011;21808;42.142;24.720;2024-03-25T01:53:46;2.90;;;0.50;;
35685;SDS011;21808;42.142;24.720;2024-03-25T01:56:12;1.42;;;0.50;;
35685;SDS011;21808;42.142;24.720;2024-03-25T01:58:41;2.08;;;0.70;;
35685;SDS011;21808;42.142;24.720;2024-03-25T02:01:07;1.42;;;0.47;;
35685;SDS011;21808;42.142;24.720;2024-03-25T02:06:06;0.73;;;0.30;;
35685;SDS011;21808;42.142;24.720;2024-03-25T02:08:35;2.40;;;0.40;;
35685;SDS011;21808;42.142;24.720;2024-03-25T02:11:04;0.30;;;0.17;;
35685;SDS011;21808;42.142;24.720;2024-03-25T02:13:31;1.13;;;0.38;;
35685;SDS011;21808;42.142;24.720;2024-03-25T02:15:59;0.43;;;0.13;;
35685;SDS011;21808;42.142;24.720;2024-03-25T02:18:25;0.30;;;0.25;;
35685;SDS011;21808;42.142;24.720;2024-03-25T02:20:51;1.90;;;0.50;;
35685;SDS011;21808;42.142;24.720;2024-03-25T02:23:17;0.20;;;0.05;;
35685;SDS011;21808;42.142;24.720;2024-03-25T02:25:48;1.02;;;0.32;;
35685;SDS011;21808;42.142;24.720;2024-03-25T02:28:15;2.45;;;0.50;;
35685;SDS011;21808;42.142;24.720;2024-03-25T02:30:41;2.40;;;0.70;;
35685;SDS011;21808;42.142;24.720;2024-03-25T02:33:07;2.95;;;0.50;;
35685;SDS011;21808;42.142;24.720;2024-03-25T02:35:33;1.08;;;0.38;;
35685;SDS011;21808;42.142;24.720;2024-03-25T02:38:00;0.70;;;0.38;;
35685;SDS011;21808;42.142;24.720;2024-03-25T02:40:28;1.80;;;0.60;;
35685;SDS011;21808;42.142;24.720;2024-03-25T02:42:57;0.55;;;0.20;;
35685;SDS011;21808;42.142;24.720;2024-03-25T02:45:23;0.30;;;0.30;;
35685;SDS011;21808;42.142;24.720;2024-03-25T02:47:50;0.30;;;0.30;;
35685;SDS011;21808;42.142;24.720;2024-03-25T02:50:16;1.02;;;0.40;;
35685;SDS011;21808;42.142;24.720;2024-03-25T02:52:42;0.88;;;0.30;;
35685;SDS011;21808;42.142;24.720;2024-03-25T02:55:08;1.13;;;0.30;;
35685;SDS011;21808;42.142;24.720;2024-03-25T02:57:34;0.52;;;0.20;;
35685;SDS011;21808;42.142;24.720;2024-03-25T03:00:01;0.10;;;0.10;;
35685;SDS011;21808;42.142;24.720;2024-03-25T03:02:28;0.28;;;0.22;;
35685;SDS011;21808;42.142;24.720;2024-03-25T03:04:54;1.20;;;0.35;;
35685;SDS011;21808;42.142;24.720;2024-03-25T03:07:20;1.38;;;0.45;;
35685;SDS011;21808;42.142;24.720;2024-03-25T03:09:46;0.28;;;0.28;;
35685;SDS011;21808;42.142;24.720;2024-03-25T03:12:12;1.35;;;0.52;;
35685;SDS011;21808;42.142;24.720;2024-03-25T03:14:38;1.13;;;0.60;;
35685;SDS011;21808;42.142;24.720;2024-03-25T03:17:05;4.28;;;1.20;;
35685;SDS011;21808;42.142;24.720;2024-03-25T03:19:31;3.45;;;1.00;;
35685;SDS011;21808;42.142;24.720;2024-03-25T03:21:57;3.85;;;1.27;;
35685;SDS011;21808;42.142;24.720;2024-03-25T03:24:23;1.70;;;0.60;;
35685;SDS011;21808;42.142;24.720;2024-03-25T03:26:49;3.85;;;0.90;;
35685;SDS011;21808;42.142;24.720;2024-03-25T03:29:15;2.58;;;0.70;;
35685;SDS011;21808;42.142;24.720;2024-03-25T03:31:41;2.75;;;0.52;;
35685;SDS011;21808;42.142;24.720;2024-03-25T03:34:09;1.17;;;0.32;;
35685;SDS011;21808;42.142;24.720;2024-03-25T03:36:36;3.10;;;1.00;;
35685;SDS011;21808;42.142;24.720;2024-03-25T03:39:02;4.65;;;1.30;;
35685;SDS011;21808;42.142;24.720;2024-03-25T03:41:28;2.72;;;1.17;;
35685;SDS011;21808;42.142;24.720;2024-03-25T03:43:54;2.35;;;0.88;;
35685;SDS011;21808;42.142;24.720;2024-03-25T03:46:20;3.72;;;0.60;;
35685;SDS011;21808;42.142;24.720;2024-03-25T03:48:46;1.25;;;0.50;;
35685;SDS011;21808;42.142;24.720;2024-03-25T03:51:14;0.30;;;0.20;;
35685;SDS011;21808;42.142;24.720;2024-03-25T03:53:40;2.78;;;0.60;;
35685;SDS011;21808;42.142;24.720;2024-03-25T03:56:06;1.02;;;0.40;;
35685;SDS011;21808;42.142;24.720;2024-03-25T03:58:32;1.17;;;0.38;;
35685;SDS011;21808;42.142;24.720;2024-03-25T04:01:01;0.55;;;0.28;;
35685;SDS011;21808;42.142;24.720;2024-03-25T04:03:27;1.05;;;0.50;;
35685;SDS011;21808;42.142;24.720;2024-03-25T04:05:53;1.65;;;0.47;;
35685;SDS011;21808;42.142;24.720;2024-03-25T04:08:20;1.25;;;0.45;;
35685;SDS011;21808;42.142;24.720;2024-03-25T04:10:46;1.17;;;0.50;;
35685;SDS011;21808;42.142;24.720;2024-03-25T04:13:12;0.40;;;0.30;;
35685;SDS011;21808;42.142;24.720;2024-03-25T04:15:38;1.48;;;0.40;;
35685;SDS011;21808;42.142;24.720;2024-03-25T04:18:05;1.50;;;0.40;;
35685;SDS011;21808;42.142;24.720;2024-03-25T04:20:35;2.42;;;0.43;;
35685;SDS011;21808;42.142;24.720;2024-03-25T04:23:02;0.80;;;0.35;;
35685;SDS011;21808;42.142;24.720;2024-03-25T04:25:30;0.57;;;0.30;;
35685;SDS011;21808;42.142;24.720;2024-03-25T04:27:56;1.35;;;0.38;;
35685;SDS011;21808;42.142;24.720;2024-03-25T04:30:22;0.25;;;0.25;;
35685;SDS011;21808;42.142;24.720;2024-03-25T04:32:48;0.20;;;0.20;;
35685;SDS011;21808;42.142;24.720;2024-03-25T04:35:14;1.23;;;0.43;;
35685;SDS011;21808;42.142;24.720;2024-03-25T04:37:40;0.95;;;0.60;;
35685;SDS011;21808;42.142;24.720;2024-03-25T04:40:10;0.20;;;0.20;;
35685;SDS011;21808;42.142;24.720;2024-03-25T04:42:41;0.98;;;0.50;;
35685;SDS011;21808;42.142;24.720;2024-03-25T04:45:09;0.25;;;0.25;;
35685;SDS011;21808;42.142;24.720;2024-03-25T04:47:41;0.63;;;0.35;;
35685;SDS011;21808;42.142;24.720;2024-03-25T04:50:07;0.88;;;0.17;;
35685;SDS011;21808;42.142;24.720;2024-03-25T04:52:34;2.65;;;0.40;;
35685;SDS011;21808;42.142;24.720;2024-03-25T04:55:00;0.88;;;0.40;;
35685;SDS011;21808;42.142;24.720;2024-03-25T04:57:26;0.65;;;0.40;;
35685;SDS011;21808;42.142;24.720;2024-03-25T04:59:54;0.40;;;0.38;;
35685;SDS011;21808;42.142;24.720;2024-03-25T05:02:20;0.73;;;0.52;;
35685;SDS011;21808;42.142;24.720;2024-03-25T05:04:46;1.48;;;0.90;;
35685;SDS011;21808;42.142;24.720;2024-03-25T05:07:12;2.78;;;1.10;;
35685;SDS011;21808;42.142;24.720;2024-03-25T05:09:38;1.75;;;0.73;;
35685;SDS011;21808;42.142;24.720;2024-03-25T05:12:04;0.98;;;0.70;;
35685;SDS011;21808;42.142;24.720;2024-03-25T05:14:30;3.25;;;0.60;;
35685;SDS011;21808;42.142;24.720;2024-03-25T05:16:57;1.67;;;0.70;;
35685;SDS011;21808;42.142;24.720;2024-03-25T05:19:23;2.15;;;1.00;;
35685;SDS011;21808;42.142;24.720;2024-03-25T05:21:49;2.13;;;0.80;;
35685;SDS011;21808;42.142;24.720;2024-03-25T05:24:15;2.08;;;1.08;;
35685;SDS011;21808;42.142;24.720;2024-03-25T05:26:41;3.70;;;1.42;;
35685;SDS011;21808;42.142;24.720;2024-03-25T05:29:07;4.20;;;1.80;;
35685;SDS011;21808;42.142;24.720;2024-03-25T05:31:34;3.15;;;1.52;;
35685;SDS011;21808;42.142;24.720;2024-03-25T05:34:02;3.42;;;1.98;;
35685;SDS011;21808;42.142;24.720;2024-03-25T05:36:34;3.55;;;1.98;;
35685;SDS011;21808;42.142;24.720;2024-03-25T05:38:59;4.10;;;2.08;;
35685;SDS011;21808;42.142;24.720;2024-03-25T05:41:25;3.03;;;1.90;;
35685;SDS011;21808;42.142;24.720;2024-03-25T05:43:51;3.50;;;1.80;;
35685;SDS011;21808;42.142;24.720;2024-03-25T05:46:18;5.22;;;2.40;;
35685;SDS011;21808;42.142;24.720;2024-03-25T05:48:44;3.92;;;1.92;;
35685;SDS011;21808;42.142;24.720;2024-03-25T05:51:12;4.85;;;2.38;;
35685;SDS011;21808;42.142;24.720;2024-03-25T05:53:38;4.43;;;1.98;;
35685;SDS011;21808;42.142;24.720;2024-03-25T05:56:04;3.60;;;2.03;;
35685;SDS011;21808;42.142;24.720;2024-03-25T05:58:30;5.50;;;2.25;;
35685;SDS011;21808;42.142;24.720;2024-03-25T06:00:56;3.30;;;1.63;;
35685;SDS011;21808;42.142;24.720;2024-03-25T06:03:22;3.20;;;1.77;;
35685;SDS011;21808;42.142;24.720;2024-03-25T06:05:48;5.85;;;2.00;;
35685;SDS011;21808;42.142;24.720;2024-03-25T06:08:16;4.43;;;1.98;;
35685;SDS011;21808;42.142;24.720;2024-03-25T06:10:50;3.13;;;1.30;;
35685;SDS011;21808;42.142;24.720;2024-03-25T06:13:16;2.97;;;1.33;;
35685;SDS011;21808;42.142;24.720;2024-03-25T06:15:42;5.80;;;1.70;;
35685;SDS011;21808;42.142;24.720;2024-03-25T06:18:08;5.13;;;1.85;;
35685;SDS011;21808;42.142;24.720;2024-03-25T06:20:34;4.93;;;1.95;;
35685;SDS011;21808;42.142;24.720;2024-03-25T06:23:01;5.20;;;1.52;;
35685;SDS011;21808;42.142;24.720;2024-03-25T06:25:28;4.93;;;1.45;;
35685;SDS011;21808;42.142;24.720;2024-03-25T06:27:54;5.95;;;1.83;;
35685;SDS011;21808;42.142;24.720;2024-03-25T06:30:20;7.85;;;2.15;;
35685;SDS011;21808;42.142;24.720;2024-03-25T06:33:05;5.50;;;1.92;;
35685;SDS011;21808;42.142;24.720;2024-03-25T06:35:53;5.40;;;1.83;;
35685;SDS011;21808;42.142;24.720;2024-03-25T06:38:19;8.07;;;2.15;;
35685;SDS011;21808;42.142;24.720;2024-03-25T06:40:46;10.23;;;2.67;;
35685;SDS011;21808;42.142;24.720;2024-03-25T06:43:12;6.15;;;2.05;;
35685;SDS011;21808;42.142;24.720;2024-03-25T06:45:39;10.27;;;2.33;;
35685;SDS011;21808;42.142;24.720;2024-03-25T06:48:05;6.95;;;2.42;;
35685;SDS011;21808;42.142;24.720;2024-03-25T06:50:32;6.75;;;2.15;;
35685;SDS011;21808;42.142;24.720;2024-03-25T06:52:58;6.93;;;2.30;;
35685;SDS011;21808;42.142;24.720;2024-03-25T06:55:23;9.80;;;2.30;;
35685;SDS011;21808;42.142;24.720;2024-03-25T06:57:54;5.85;;;2.13;;
35685;SDS011;21808;42.142;24.720;2024-03-25T07:00:20;9.98;;;2.70;;
35685;SDS011;21808;42.142;24.720;2024-03-25T07:02:47;8.18;;;2.60;;
35685;SDS011;21808;42.142;24.720;2024-03-25T07:05:13;8.77;;;2.30;;
35685;SDS011;21808;42.142;24.720;2024-03-25T07:07:39;10.52;;;2.78;;
35685;SDS011;21808;42.142;24.720;2024-03-25T07:10:06;8.52;;;2.45;;
35685;SDS011;21808;42.142;24.720;2024-03-25T07:12:32;7.70;;;2.20;;
35685;SDS011;21808;42.142;24.720;2024-03-25T07:15:00;8.13;;;2.08;;
35685;SDS011;21808;42.142;24.720;2024-03-25T07:17:26;12.13;;;3.70;;
35685;SDS011;21808;42.142;24.720;2024-03-25T07:19:52;7.53;;;2.45;;
35685;SDS011;21808;42.142;24.720;2024-03-25T07:22:18;7.97;;;2.10;;
35685;SDS011;21808;42.142;24.720;2024-03-25T07:24:44;8.38;;;2.83;;
35685;SDS011;21808;42.142;24.720;2024-03-25T07:27:10;8.88;;;2.50;;
35685;SDS011;21808;42.142;24.720;2024-03-25T07:29:36;7.72;;;2.75;;
35685;SDS011;21808;42.142;24.720;2024-03-25T07:32:04;9.95;;;2.92;;
35685;SDS011;21808;42.142;24.720;2024-03-25T07:34:30;8.25;;;2.38;;
35685;SDS011;21808;42.142;24.720;2024-03-25T07:36:56;7.65;;;2.53;;
35685;SDS011;21808;42.142;24.720;2024-03-25T07:39:22;7.80;;;2.70;;
35685;SDS011;21808;42.142;24.720;2024-03-25T07:41:52;6.80;;;2.17;;
35685;SDS011;21808;42.142;24.720;2024-03-25T07:44:19;8.38;;;2.40;;
35685;SDS011;21808;42.142;24.720;2024-03-25T07:46:45;9.00;;;2.75;;
35685;SDS011;21808;42.142;24.720;2024-03-25T07:49:12;5.95;;;2.05;;
35685;SDS011;21808;42.142;24.720;2024-03-25T07:51:39;7.45;;;2.50;;
35685;SDS011;21808;42.142;24.720;2024-03-25T07:54:05;6.43;;;2.35;;
35685;SDS011;21808;42.142;24.720;2024-03-25T07:56:34;9.45;;;2.40;;
35685;SDS011;21808;42.142;24.720;2024-03-25T07:59:02;6.38;;;2.15;;
35685;SDS011;21808;42.142;24.720;2024-03-25T08:01:29;7.20;;;2.30;;
35685;SDS011;21808;42.142;24.720;2024-03-25T08:03:56;7.88;;;2.30;;
35685;SDS011;21808;42.142;24.720;2024-03-25T08:06:23;7.47;;;2.53;;
35685;SDS011;21808;42.142;24.720;2024-03-25T08:08:52;7.40;;;2.20;;
35685;SDS011;21808;42.142;24.720;2024-03-25T08:11:22;6.93;;;2.45;;
35685;SDS011;21808;42.142;24.720;2024-03-25T08:13:48;7.70;;;2.65;;
35685;SDS011;21808;42.142;24.720;2024-03-25T08:16:22;5.88;;;2.42;;
35685;SDS011;21808;42.142;24.720;2024-03-25T08:18:49;7.88;;;2.40;;
35685;SDS011;21808;42.142;24.720;2024-03-25T08:21:15;11.57;;;2.47;;
35685;SDS011;21808;42.142;24.720;2024-03-25T08:23:44;12.77;;;3.47;;
35685;SDS011;21808;42.142;24.720;2024-03-25T08:26:10;9.55;;;2.38;;
35685;SDS011;21808;42.142;24.720;2024-03-25T08:28:36;9.65;;;3.03;;
35685;SDS011;21808;42.142;24.720;2024-03-25T08:31:03;10.18;;;2.30;;
35685;SDS011;21808;42.142;24.720;2024-03-25T08:33:29;5.25;;;1.70;;
35685;SDS011;21808;42.142;24.720;2024-03-25T08:35:55;5.20;;;1.75;;
35685;SDS011;21808;42.142;24.720;2024-03-25T08:38:21;6.18;;;1.50;;
35685;SDS011;21808;42.142;24.720;2024-03-25T08:40:48;7.45;;;2.10;;
35685;SDS011;21808;42.142;24.720;2024-03-25T08:43:16;6.78;;;2.13;;
35685;SDS011;21808;42.142;24.720;2024-03-25T08:45:42;7.07;;;2.20;;
35685;SDS011;21808;42.142;24.720;2024-03-25T08:48:08;5.97;;;1.90;;
35685;SDS011;21808;42.142;24.720;2024-03-25T08:50:34;5.50;;;1.80;;
35685;SDS011;21808;42.142;24.720;2024-03-25T08:53:00;8.80;;;2.90;;
35685;SDS011;21808;42.142;24.720;2024-03-25T08:55:27;7.72;;;1.70;;
35685;SDS011;21808;42.142;24.720;2024-03-25T08:57:54;5.93;;;2.00;;
35685;SDS011;21808;42.142;24.720;2024-03-25T09:00:20;7.03;;;2.20;;
35685;SDS011;21808;42.142;24.720;2024-03-25T09:02:48;6.32;;;1.98;;
35685;SDS011;21808;42.142;24.720;2024-03-25T09:05:14;7.63;;;2.47;;
35685;SDS011;21808;42.142;24.720;2024-03-25T09:07:43;8.73;;;2.25;;
35685;SDS011;21808;42.142;24.720;2024-03-25T09:10:09;5.95;;;1.90;;
35685;SDS011;21808;42.142;24.720;2024-03-25T09:12:56;6.32;;;2.03;;
35685;SDS011;21808;42.142;24.720;2024-03-25T09:15:22;7.78;;;2.30;;
35685;SDS011;21808;42.142;24.720;2024-03-25T09:17:48;6.95;;;2.10;;
35685;SDS011;21808;42.142;24.720;2024-03-25T09:20:31;8.52;;;2.13;;
35685;SDS011;21808;42.142;24.720;2024-03-25T09:22:58;6.13;;;1.88;;
35685;SDS011;21808;42.142;24.720;2024-03-25T09:25:24;8.18;;;2.13;;
35685;SDS011;21808;42.142;24.720;2024-03-25T09:27:50;10.35;;;2.17;;
35685;SDS011;21808;42.142;24.720;2024-03-25T09:30:18;6.45;;;1.90;;
35685;SDS011;21808;42.142;24.720;2024-03-25T09:32:44;8.20;;;2.10;;
35685;SDS011;21808;42.142;24.720;2024-03-25T09:35:11;5.70;;;2.00;;
35685;SDS011;21808;42.142;24.720;2024-03-25T09:37:40;7.35;;;2.00;;
35685;SDS011;21808;42.142;24.720;2024-03-25T09:40:09;7.40;;;2.10;;
35685;SDS011;21808;42.142;24.720;2024-03-25T09:42:44;6.47;;;2.03;;
35685;SDS011;21808;42.142;24.720;2024-03-25T09:45:15;6.93;;;2.17;;
35685;SDS011;21808;42.142;24.720;2024-03-25T09:47:45;4.07;;;1.55;;
35685;SDS011;21808;42.142;24.720;2024-03-25T09:50:13;4.80;;;1.40;;
35685;SDS011;21808;42.142;24.720;2024-03-25T09:52:44;3.50;;;1.45;;
35685;SDS011;21808;42.142;24.720;2024-03-25T09:55:10;5.07;;;1.73;;
35685;SDS011;21808;42.142;24.720;2024-03-25T09:57:39;4.75;;;1.80;;
35685;SDS011;21808;42.142;24.720;2024-03-25T10:00:07;6.05;;;1.63;;
35685;SDS011;21808;42.142;24.720;2024-03-25T10:02:38;6.45;;;2.05;;
35685;SDS011;21808;42.142;24.720;2024-03-25T10:05:06;5.32;;;1.60;;
35685;SDS011;21808;42.142;24.720;2024-03-25T10:07:33;6.78;;;2.42;;
35685;SDS011;21808;42.142;24.720;2024-03-25T10:10:08;7.20;;;3.17;;
35685;SDS011;21808;42.142;24.720;2024-03-25T10:12:35;7.75;;;3.15;;
35685;SDS011;21808;42.142;24.720;2024-03-25T10:15:01;4.43;;;1.63;;
35685;SDS011;21808;42.142;24.720;2024-03-25T10:17:30;4.38;;;1.60;;
35685;SDS011;21808;42.142;24.720;2024-03-25T10:19:57;5.80;;;1.70;;
35685;SDS011;21808;42.142;24.720;2024-03-25T10:22:23;5.68;;;1.83;;
35685;SDS011;21808;42.142;24.720;2024-03-25T10:24:49;7.65;;;2.20;;
35685;SDS011;21808;42.142;24.720;2024-03-25T10:27:19;4.95;;;1.60;;
35685;SDS011;21808;42.142;24.720;2024-03-25T10:29:46;6.32;;;1.90;;
35685;SDS011;21808;42.142;24.720;2024-03-25T10:32:14;10.98;;;1.80;;
35685;SDS011;21808;42.142;24.720;2024-03-25T10:34:40;5.75;;;1.70;;
35685;SDS011;21808;42.142;24.720;2024-03-25T10:37:08;13.48;;;3.35;;
35685;SDS011;21808;42.142;24.720;2024-03-25T10:39:38;4.28;;;1.60;;
35685;SDS011;21808;42.142;24.720;2024-03-25T10:42:09;4.40;;;1.55;;
35685;SDS011;21808;42.142;24.720;2024-03-25T10:44:39;5.25;;;1.83;;
35685;SDS011;21808;42.142;24.720;2024-03-25T10:47:08;6.72;;;1.90;;
35685;SDS011;21808;42.142;24.720;2024-03-25T10:49:48;5.50;;;1.80;;
35685;SDS011;21808;42.142;24.720;2024-03-25T10:52:16;6.85;;;1.83;;
35685;SDS011;21808;42.142;24.720;2024-03-25T10:54:44;6.43;;;1.98;;
35685;SDS011;21808;42.142;24.720;2024-03-25T10:57:13;4.63;;;1.45;;
35685;SDS011;21808;42.142;24.720;2024-03-25T10:59:48;5.38;;;1.85;;
35685;SDS011;21808;42.142;24.720;2024-03-25T11:02:14;5.60;;;1.63;;
35685;SDS011;21808;42.142;24.720;2024-03-25T11:04:43;3.83;;;1.33;;
35685;SDS011;21808;42.142;24.720;2024-03-25T11:07:10;4.45;;;1.50;;
35685;SDS011;21808;42.142;24.720;2024-03-25T11:09:39;6.07;;;1.60;;
35685;SDS011;21808;42.142;24.720;2024-03-25T11:12:06;5.40;;;1.73;;
35685;SDS011;21808;42.142;24.720;2024-03-25T11:14:35;5.88;;;1.60;;
35685;SDS011;21808;42.142;24.720;2024-03-25T11:17:02;7.45;;;1.92;;
35685;SDS011;21808;42.142;24.720;2024-03-25T11:19:28;6.35;;;1.75;;
35685;SDS011;21808;42.142;24.720;2024-03-25T11:22:06;5.68;;;1.80;;
35685;SDS011;21808;42.142;24.720;2024-03-25T11:27:05;4.57;;;1.73;;
35685;SDS011;21808;42.142;24.720;2024-03-25T11:29:31;4.70;;;1.52;;
35685;SDS011;21808;42.142;24.720;2024-03-25T11:31:58;7.40;;;2.40;;
35685;SDS011;21808;42.142;24.720;2024-03-25T11:34:28;3.83;;;1.30;;
35685;SDS011;21808;42.142;24.720;2024-03-25T11:36:54;6.88;;;1.73;;
35685;SDS011;21808;42.142;24.720;2024-03-25T11:39:22;7.15;;;1.65;;
35685;SDS011;21808;42.142;24.720;2024-03-25T11:41:48;3.90;;;1.40;;
35685;SDS011;21808;42.142;24.720;2024-03-25T11:44:15;3.97;;;1.50;;
35685;SDS011;21808;42.142;24.720;2024-03-25T11:46:43;3.83;;;1.50;;
35685;SDS011;21808;42.142;24.720;2024-03-25T11:49:12;5.00;;;1.67;;
35685;SDS011;21808;42.142;24.720;2024-03-25T11:51:39;7.18;;;1.50;;
35685;SDS011;21808;42.142;24.720;2024-03-25T11:54:10;5.13;;;1.65;;
35685;SDS011;21808;42.142;24.720;2024-03-25T11:56:37;6.50;;;1.90;;
35685;SDS011;21808;42.142;24.720;2024-03-25T11:59:05;4.80;;;1.60;;
35685;SDS011;21808;42.142;24.720;2024-03-25T12:01:33;6.55;;;1.55;;
35685;SDS011;21808;42.142;24.720;2024-03-25T12:04:08;7.38;;;2.65;;
35685;SDS011;21808;42.142;24.720;2024-03-25T12:06:35;5.72;;;1.67;;
35685;SDS011;21808;42.142;24.720;2024-03-25T12:09:01;6.40;;;1.92;;
35685;SDS011;21808;42.142;24.720;2024-03-25T12:11:46;9.63;;;1.63;;
35685;SDS011;21808;42.142;24.720;2024-03-25T12:14:13;4.53;;;1.30;;
35685;SDS011;21808;42.142;24.720;2024-03-25T12:16:43;4.63;;;1.52;;
35685;SDS011;21808;42.142;24.720;2024-03-25T12:19:11;5.88;;;1.63;;
35685;SDS011;21808;42.142;24.720;2024-03-25T12:21:37;5.38;;;1.13;;
35685;SDS011;21808;42.142;24.720;2024-03-25T12:24:03;4.28;;;1.50;;
35685;SDS011;21808;42.142;24.720;2024-03-25T12:26:30;5.88;;;1.70;;
35685;SDS011;21808;42.142;24.720;2024-03-25T12:28:57;4.72;;;1.42;;
35685;SDS011;21808;42.142;24.720;2024-03-25T12:31:23;5.03;;;1.70;;
35685;SDS011;21808;42.142;24.720;2024-03-25T12:33:51;5.18;;;1.40;;
35685;SDS011;21808;42.142;24.720;2024-03-25T12:36:17;3.63;;;1.00;;
35685;SDS011;21808;42.142;24.720;2024-03-25T12:38:53;4.80;;;1.50;;
35685;SDS011;21808;42.142;24.720;2024-03-25T12:41:21;5.35;;;1.58;;
35685;SDS011;21808;42.142;24.720;2024-03-25T12:43:49;3.92;;;1.80;;
35685;SDS011;21808;42.142;24.720;2024-03-25T12:46:18;7.30;;;2.35;;
35685;SDS011;21808;42.142;24.720;2024-03-25T12:48:47;7.57;;;2.35;;
35685;SDS011;21808;42.142;24.720;2024-03-25T12:51:15;4.38;;;1.90;;
35685;SDS011;21808;42.142;24.720;2024-03-25T12:53:41;6.18;;;2.33;;
35685;SDS011;21808;42.142;24.720;2024-03-25T12:56:09;3.90;;;2.13;;
35685;SDS011;21808;42.142;24.720;2024-03-25T12:58:38;4.32;;;2.92;;
35685;SDS011;21808;42.142;24.720;2024-03-25T13:01:04;4.97;;;1.42;;
35685;SDS011;21808;42.142;24.720;2024-03-25T13:03:31;2.80;;;1.00;;
35685;SDS011;21808;42.142;24.720;2024-03-25T13:05:57;4.28;;;2.50;;
35685;SDS011;21808;42.142;24.720;2024-03-25T13:08:26;7.55;;;1.25;;
35685;SDS011;21808;42.142;24.720;2024-03-25T13:10:52;3.25;;;1.20;;
35685;SDS011;21808;42.142;24.720;2024-03-25T13:13:18;4.72;;;1.50;;
35685;SDS011;21808;42.142;24.720;2024-03-25T13:15:44;14.13;;;2.90;;
35685;SDS011;21808;42.142;24.720;2024-03-25T13:18:10;6.75;;;1.48;;
35685;SDS011;21808;42.142;24.720;2024-03-25T13:20:36;2.58;;;0.80;;
35685;SDS011;21808;42.142;24.720;2024-03-25T13:23:16;4.75;;;1.23;;
35685;SDS011;21808;42.142;24.720;2024-03-25T13:25:43;4.63;;;1.20;;
35685;SDS011;21808;42.142;24.720;2024-03-25T13:28:09;8.70;;;1.42;;
35685;SDS011;21808;42.142;24.720;2024-03-25T13:30:35;2.90;;;1.20;;
35685;SDS011;21808;42.142;24.720;2024-03-25T13:33:04;4.55;;;1.25;;
35685;SDS011;21808;42.142;24.720;2024-03-25T13:35:30;4.20;;;1.33;;
35685;SDS011;21808;42.142;24.720;2024-03-25T13:37:59;3.35;;;1.15;;
35685;SDS011;21808;42.142;24.720;2024-03-25T13:40:25;4.35;;;1.52;;
35685;SDS011;21808;42.142;24.720;2024-03-25T13:42:53;3.70;;;1.30;;
35685;SDS011;21808;42.142;24.720;2024-03-25T13:45:19;7.32;;;1.88;;
35685;SDS011;21808;42.142;24.720;2024-03-25T13:47:44;4.10;;;1.50;;
35685;SDS011;21808;42.142;24.720;2024-03-25T13:50:10;6.00;;;1.80;;
35685;SDS011;21808;42.142;24.720;2024-03-25T13:52:36;8.60;;;2.03;;
35685;SDS011;21808;42.142;24.720;2024-03-25T13:55:03;7.38;;;1.95;;
35685;SDS011;21808;42.142;24.720;2024-03-25T13:57:29;7.35;;;1.98;;
35685;SDS011;21808;42.142;24.720;2024-03-25T13:59:56;4.85;;;1.70;;
35685;SDS011;21808;42.142;24.720;2024-03-25T14:02:23;7.28;;;1.50;;
35685;SDS011;21808;42.142;24.720;2024-03-25T14:04:49;4.07;;;1.35;;
35685;SDS011;21808;42.142;24.720;2024-03-25T14:07:15;4.18;;;1.38;;
35685;SDS011;21808;42.142;24.720;2024-03-25T14:09:41;5.43;;;1.52;;
35685;SDS011;21808;42.142;24.720;2024-03-25T14:12:07;2.70;;;1.05;;
35685;SDS011;21808;42.142;24.720;2024-03-25T14:14:32;2.83;;;0.98;;
35685;SDS011;21808;42.142;24.720;2024-03-25T14:17:00;2.20;;;0.93;;
35685;SDS011;21808;42.142;24.720;2024-03-25T14:19:26;2.25;;;1.08;;
35685;SDS011;21808;42.142;24.720;2024-03-25T14:21:53;4.13;;;1.30;;
35685;SDS011;21808;42.142;24.720;2024-03-25T14:24:19;5.20;;;1.40;;
35685;SDS011;21808;42.142;24.720;2024-03-25T14:26:44;4.78;;;1.50;;
35685;SDS011;21808;42.142;24.720;2024-03-25T14:29:10;4.40;;;1.50;;
35685;SDS011;21808;42.142;24.720;2024-03-25T14:31:36;10.13;;;1.73;;
35685;SDS011;21808;42.142;24.720;2024-03-25T14:34:03;5.13;;;1.50;;
35685;SDS011;21808;42.142;24.720;2024-03-25T14:36:33;5.57;;;1.83;;
35685;SDS011;21808;42.142;24.720;2024-03-25T14:39:01;5.25;;;1.80;;